sensor_id;sensor_type;location;lat;lon;timestamp;P1;durP1;ratioP1;P2;durP2;ratioP2
7233;SDS011;3658;47.992;10.158;2022-09-14T00:00:44;3.90;;;1.90;;
7233;SDS011;3658;47.992;10.158;2022-09-14T00:03:13;2.37;;;1.70;;
7233;SDS011;3658;47.992;10.158;2022-09-14T00:05:40;2.83;;;1.73;;
7233;SDS011;3658;47.992;10.158;2022-09-14T00:08:07;2.90;;;1.60;;
7233;SDS011;3658;47.992;10.158;2022-09-14T00:10:36;1.90;;;1.70;;
7233;SDS011;3658;47.992;10.158;2022-09-14T00:13:04;1.70;;;1.50;;
7233;SDS011;3658;47.992;10.158;2022-09-14T00:15:33;2.33;;;2.13;;
7233;SDS011;3658;47.992;10.158;2022-09-14T00:18:01;2.20;;;1.80;;
7233;SDS011;3658;47.992;10.158;2022-09-14T00:20:30;2.10;;;1.80;;
7233;SDS011;3658;47.992;10.158;2022-09-14T00:22:57;2.97;;;1.80;;
7233;SDS011;3658;47.992;10.158;2022-09-14T00:25:24;2.53;;;1.70;;
7233;SDS011;3658;47.992;10.158;2022-09-14T00:27:51;2.27;;;1.50;;
7233;SDS011;3658;47.992;10.158;2022-09-14T00:30:18;2.30;;;1.77;;
7233;SDS011;3658;47.992;10.158;2022-09-14T00:32:45;1.97;;;1.70;;
7233;SDS011;3658;47.992;10.158;2022-09-14T00:35:12;1.83;;;1.60;;
7233;SDS011;3658;47.992;10.158;2022-09-14T00:37:41;1.97;;;1.60;;
7233;SDS011;3658;47.992;10.158;2022-09-14T00:40:08;1.87;;;1.60;;
7233;SDS011;3658;47.992;10.158;2022-09-14T00:42:36;1.93;;;1.73;;
7233;SDS011;3658;47.992;10.158;2022-09-14T00:45:06;1.67;;;1.57;;
7233;SDS011;3658;47.992;10.158;2022-09-14T00:47:38;1.63;;;1.53;;
7233;SDS011;3658;47.992;10.158;2022-09-14T00:50:07;2.87;;;1.67;;
7233;SDS011;3658;47.992;10.158;2022-09-14T00:52:35;2.13;;;1.63;;
7233;SDS011;3658;47.992;10.158;2022-09-14T00:55:08;2.87;;;1.70;;
7233;SDS011;3658;47.992;10.158;2022-09-14T00:57:40;2.57;;;1.93;;
7233;SDS011;3658;47.992;10.158;2022-09-14T01:00:10;1.60;;;1.50;;
7233;SDS011;3658;47.992;10.158;2022-09-14T01:02:38;1.80;;;1.70;;
7233;SDS011;3658;47.992;10.158;2022-09-14T01:05:06;2.07;;;1.70;;
7233;SDS011;3658;47.992;10.158;2022-09-14T01:07:47;1.53;;;1.30;;
7233;SDS011;3658;47.992;10.158;2022-09-14T01:10:36;1.50;;;1.40;;
7233;SDS011;3658;47.992;10.158;2022-09-14T01:13:15;1.87;;;1.60;;
7233;SDS011;3658;47.992;10.158;2022-09-14T01:15:52;1.57;;;1.43;;
7233;SDS011;3658;47.992;10.158;2022-09-14T01:18:26;1.50;;;1.40;;
7233;SDS011;3658;47.992;10.158;2022-09-14T01:20:55;1.50;;;1.40;;
7233;SDS011;3658;47.992;10.158;2022-09-14T01:23:29;2.30;;;1.60;;
7233;SDS011;3658;47.992;10.158;2022-09-14T01:29:02;1.50;;;1.40;;
7233;SDS011;3658;47.992;10.158;2022-09-14T01:31:39;2.10;;;1.70;;
7233;SDS011;3658;47.992;10.158;2022-09-14T01:34:14;1.93;;;1.43;;
7233;SDS011;3658;47.992;10.158;2022-09-14T01:36:46;1.57;;;1.30;;
7233;SDS011;3658;47.992;10.158;2022-09-14T01:39:16;1.67;;;1.47;;
7233;SDS011;3658;47.992;10.158;2022-09-14T01:41:45;1.80;;;1.50;;
7233;SDS011;3658;47.992;10.158;2022-09-14T01:44:15;1.50;;;1.40;;
7233;SDS011;3658;47.992;10.158;2022-09-14T01:46:46;1.60;;;1.50;;
7233;SDS011;3658;47.992;10.158;2022-09-14T01:49:18;1.40;;;1.30;;
7233;SDS011;3658;47.992;10.158;2022-09-14T01:51:50;1.40;;;1.30;;
7233;SDS011;3658;47.992;10.158;2022-09-14T01:54:22;1.60;;;1.50;;
7233;SDS011;3658;47.992;10.158;2022-09-14T01:56:55;1.70;;;1.37;;
7233;SDS011;3658;47.992;10.158;2022-09-14T01:59:29;1.50;;;1.40;;
7233;SDS011;3658;47.992;10.158;2022-09-14T02:02:00;2.43;;;1.50;;
7233;SDS011;3658;47.992;10.158;2022-09-14T02:04:33;1.70;;;1.40;;
7233;SDS011;3658;47.992;10.158;2022-09-14T02:07:04;1.40;;;1.30;;
7233;SDS011;3658;47.992;10.158;2022-09-14T02:09:31;1.40;;;1.30;;
7233;SDS011;3658;47.992;10.158;2022-09-14T02:11:58;1.47;;;1.37;;
7233;SDS011;3658;47.992;10.158;2022-09-14T02:14:26;1.47;;;1.37;;
7233;SDS011;3658;47.992;10.158;2022-09-14T02:16:55;1.47;;;1.37;;
7233;SDS011;3658;47.992;10.158;2022-09-14T02:19:22;1.30;;;1.20;;
7233;SDS011;3658;47.992;10.158;2022-09-14T02:21:54;1.60;;;1.40;;
7233;SDS011;3658;47.992;10.158;2022-09-14T02:24:21;1.40;;;1.30;;
7233;SDS011;3658;47.992;10.158;2022-09-14T02:26:48;1.57;;;1.40;;
7233;SDS011;3658;47.992;10.158;2022-09-14T02:29:17;1.63;;;1.53;;
7233;SDS011;3658;47.992;10.158;2022-09-14T02:31:48;1.30;;;1.20;;
7233;SDS011;3658;47.992;10.158;2022-09-14T02:34:31;1.60;;;1.50;;
7233;SDS011;3658;47.992;10.158;2022-09-14T02:37:06;1.27;;;1.17;;
7233;SDS011;3658;47.992;10.158;2022-09-14T02:39:39;1.50;;;1.40;;
7233;SDS011;3658;47.992;10.158;2022-09-14T02:42:15;1.30;;;1.20;;
7233;SDS011;3658;47.992;10.158;2022-09-14T02:44:52;1.60;;;1.50;;
7233;SDS011;3658;47.992;10.158;2022-09-14T02:47:28;1.40;;;1.30;;
7233;SDS011;3658;47.992;10.158;2022-09-14T02:50:05;1.60;;;1.50;;
7233;SDS011;3658;47.992;10.158;2022-09-14T02:52:38;1.53;;;1.30;;
7233;SDS011;3658;47.992;10.158;2022-09-14T02:55:11;1.47;;;1.37;;
7233;SDS011;3658;47.992;10.158;2022-09-14T03:00:26;1.50;;;1.40;;
7233;SDS011;3658;47.992;10.158;2022-09-14T03:02:55;1.60;;;1.43;;
7233;SDS011;3658;47.992;10.158;2022-09-14T03:05:22;1.57;;;1.47;;
7233;SDS011;3658;47.992;10.158;2022-09-14T03:07:50;1.30;;;1.20;;
7233;SDS011;3658;47.992;10.158;2022-09-14T03:10:17;1.40;;;1.30;;
7233;SDS011;3658;47.992;10.158;2022-09-14T03:12:44;1.30;;;1.20;;
7233;SDS011;3658;47.992;10.158;2022-09-14T03:15:11;1.50;;;1.40;;
7233;SDS011;3658;47.992;10.158;2022-09-14T03:17:38;1.30;;;1.20;;
7233;SDS011;3658;47.992;10.158;2022-09-14T03:20:07;1.60;;;1.30;;
7233;SDS011;3658;47.992;10.158;2022-09-14T03:22:35;1.50;;;1.40;;
7233;SDS011;3658;47.992;10.158;2022-09-14T03:25:02;1.40;;;1.30;;
7233;SDS011;3658;47.992;10.158;2022-09-14T03:27:29;1.37;;;1.27;;
7233;SDS011;3658;47.992;10.158;2022-09-14T03:29:56;1.40;;;1.30;;
7233;SDS011;3658;47.992;10.158;2022-09-14T03:32:23;1.20;;;1.10;;
7233;SDS011;3658;47.992;10.158;2022-09-14T03:34:50;1.70;;;1.40;;
7233;SDS011;3658;47.992;10.158;2022-09-14T03:37:18;1.37;;;1.27;;
7233;SDS011;3658;47.992;10.158;2022-09-14T03:39:45;1.50;;;1.37;;
7233;SDS011;3658;47.992;10.158;2022-09-14T03:42:12;1.20;;;1.13;;
7233;SDS011;3658;47.992;10.158;2022-09-14T03:44:39;1.70;;;1.20;;
7233;SDS011;3658;47.992;10.158;2022-09-14T03:47:06;1.30;;;1.20;;
7233;SDS011;3658;47.992;10.158;2022-09-14T03:49:33;1.37;;;1.27;;
7233;SDS011;3658;47.992;10.158;2022-09-14T03:52:00;1.53;;;1.30;;
7233;SDS011;3658;47.992;10.158;2022-09-14T03:54:30;1.47;;;1.10;;
7233;SDS011;3658;47.992;10.158;2022-09-14T03:56:57;1.50;;;1.40;;
7233;SDS011;3658;47.992;10.158;2022-09-14T03:59:24;1.30;;;1.20;;
7233;SDS011;3658;47.992;10.158;2022-09-14T04:01:51;1.40;;;1.30;;
7233;SDS011;3658;47.992;10.158;2022-09-14T04:04:17;1.47;;;1.37;;
7233;SDS011;3658;47.992;10.158;2022-09-14T04:06:44;1.23;;;1.13;;
7233;SDS011;3658;47.992;10.158;2022-09-14T04:09:11;1.23;;;1.13;;
7233;SDS011;3658;47.992;10.158;2022-09-14T04:11:40;1.20;;;1.10;;
7233;SDS011;3658;47.992;10.158;2022-09-14T04:14:07;1.30;;;1.20;;
7233;SDS011;3658;47.992;10.158;2022-09-14T04:16:33;1.30;;;1.20;;
7233;SDS011;3658;47.992;10.158;2022-09-14T04:19:00;1.40;;;1.30;;
7233;SDS011;3658;47.992;10.158;2022-09-14T04:21:28;1.40;;;1.30;;
7233;SDS011;3658;47.992;10.158;2022-09-14T04:23:55;1.30;;;1.20;;
7233;SDS011;3658;47.992;10.158;2022-09-14T04:26:24;1.40;;;1.30;;
7233;SDS011;3658;47.992;10.158;2022-09-14T04:28:54;1.10;;;1.10;;
7233;SDS011;3658;47.992;10.158;2022-09-14T04:31:21;1.13;;;1.10;;
7233;SDS011;3658;47.992;10.158;2022-09-14T04:33:49;1.70;;;1.10;;
7233;SDS011;3658;47.992;10.158;2022-09-14T04:36:17;1.30;;;1.20;;
7233;SDS011;3658;47.992;10.158;2022-09-14T04:38:46;1.30;;;1.20;;
7233;SDS011;3658;47.992;10.158;2022-09-14T04:41:14;1.60;;;1.50;;
7233;SDS011;3658;47.992;10.158;2022-09-14T04:43:43;1.30;;;1.20;;
7233;SDS011;3658;47.992;10.158;2022-09-14T04:46:13;1.40;;;1.27;;
7233;SDS011;3658;47.992;10.158;2022-09-14T04:48:41;1.40;;;1.30;;
7233;SDS011;3658;47.992;10.158;2022-09-14T04:51:10;1.13;;;1.13;;
7233;SDS011;3658;47.992;10.158;2022-09-14T04:53:40;1.30;;;1.20;;
7233;SDS011;3658;47.992;10.158;2022-09-14T04:56:08;1.30;;;1.20;;
7233;SDS011;3658;47.992;10.158;2022-09-14T04:58:37;1.13;;;1.07;;
7233;SDS011;3658;47.992;10.158;2022-09-14T05:01:08;1.70;;;1.40;;
7233;SDS011;3658;47.992;10.158;2022-09-14T05:03:38;1.43;;;1.33;;
7233;SDS011;3658;47.992;10.158;2022-09-14T05:06:07;1.20;;;1.10;;
7233;SDS011;3658;47.992;10.158;2022-09-14T05:08:35;1.30;;;1.20;;
7233;SDS011;3658;47.992;10.158;2022-09-14T05:11:03;2.03;;;1.30;;
7233;SDS011;3658;47.992;10.158;2022-09-14T05:13:30;4.03;;;1.70;;
7233;SDS011;3658;47.992;10.158;2022-09-14T05:16:03;6.03;;;1.50;;
7233;SDS011;3658;47.992;10.158;2022-09-14T05:18:31;2.37;;;1.40;;
7233;SDS011;3658;47.992;10.158;2022-09-14T05:21:01;1.57;;;1.47;;
7233;SDS011;3658;47.992;10.158;2022-09-14T05:23:29;1.77;;;1.17;;
7233;SDS011;3658;47.992;10.158;2022-09-14T05:25:56;2.63;;;1.57;;
7233;SDS011;3658;47.992;10.158;2022-09-14T05:28:24;2.30;;;1.40;;
7233;SDS011;3658;47.992;10.158;2022-09-14T05:30:51;1.63;;;1.20;;
7233;SDS011;3658;47.992;10.158;2022-09-14T05:33:19;2.00;;;1.20;;
7233;SDS011;3658;47.992;10.158;2022-09-14T05:35:47;2.27;;;1.40;;
7233;SDS011;3658;47.992;10.158;2022-09-14T05:38:16;2.33;;;1.40;;
7233;SDS011;3658;47.992;10.158;2022-09-14T05:40:43;1.97;;;1.67;;
7233;SDS011;3658;47.992;10.158;2022-09-14T05:43:10;6.30;;;2.20;;
7233;SDS011;3658;47.992;10.158;2022-09-14T05:45:37;19.47;;;2.40;;
7233;SDS011;3658;47.992;10.158;2022-09-14T05:48:04;6.93;;;1.67;;
7233;SDS011;3658;47.992;10.158;2022-09-14T05:50:31;12.23;;;2.00;;
7233;SDS011;3658;47.992;10.158;2022-09-14T05:52:58;8.93;;;1.73;;
7233;SDS011;3658;47.992;10.158;2022-09-14T05:55:27;12.17;;;2.23;;
7233;SDS011;3658;47.992;10.158;2022-09-14T05:57:53;6.20;;;1.80;;
7233;SDS011;3658;47.992;10.158;2022-09-14T06:00:20;6.27;;;1.70;;
7233;SDS011;3658;47.992;10.158;2022-09-14T06:02:48;8.10;;;1.70;;
7233;SDS011;3658;47.992;10.158;2022-09-14T06:05:16;3.80;;;1.67;;
7233;SDS011;3658;47.992;10.158;2022-09-14T06:07:43;12.70;;;2.00;;
7233;SDS011;3658;47.992;10.158;2022-09-14T06:10:10;11.23;;;1.90;;
7233;SDS011;3658;47.992;10.158;2022-09-14T06:12:39;7.17;;;1.77;;
7233;SDS011;3658;47.992;10.158;2022-09-14T06:15:06;8.97;;;1.43;;
7233;SDS011;3658;47.992;10.158;2022-09-14T06:17:35;3.30;;;1.40;;
7233;SDS011;3658;47.992;10.158;2022-09-14T06:20:02;4.67;;;1.87;;
7233;SDS011;3658;47.992;10.158;2022-09-14T06:22:31;5.40;;;1.30;;
7233;SDS011;3658;47.992;10.158;2022-09-14T06:24:58;6.40;;;1.60;;
7233;SDS011;3658;47.992;10.158;2022-09-14T06:27:25;2.20;;;1.37;;
7233;SDS011;3658;47.992;10.158;2022-09-14T06:29:54;3.93;;;1.67;;
7233;SDS011;3658;47.992;10.158;2022-09-14T06:32:21;8.93;;;1.77;;
7233;SDS011;3658;47.992;10.158;2022-09-14T06:34:48;7.90;;;1.53;;
7233;SDS011;3658;47.992;10.158;2022-09-14T06:37:15;4.67;;;1.70;;
7233;SDS011;3658;47.992;10.158;2022-09-14T06:39:42;3.57;;;1.50;;
7233;SDS011;3658;47.992;10.158;2022-09-14T06:42:09;3.97;;;1.90;;
7233;SDS011;3658;47.992;10.158;2022-09-14T06:44:36;8.37;;;1.60;;
7233;SDS011;3658;47.992;10.158;2022-09-14T06:47:04;6.00;;;1.90;;
7233;SDS011;3658;47.992;10.158;2022-09-14T06:49:32;10.27;;;1.97;;
7233;SDS011;3658;47.992;10.158;2022-09-14T06:51:59;4.90;;;1.70;;
7233;SDS011;3658;47.992;10.158;2022-09-14T06:54:26;2.20;;;1.50;;
7233;SDS011;3658;47.992;10.158;2022-09-14T06:56:53;6.87;;;2.00;;
7233;SDS011;3658;47.992;10.158;2022-09-14T06:59:20;6.57;;;1.80;;
7233;SDS011;3658;47.992;10.158;2022-09-14T07:01:48;6.27;;;1.80;;
7233;SDS011;3658;47.992;10.158;2022-09-14T07:04:17;3.33;;;1.40;;
7233;SDS011;3658;47.992;10.158;2022-09-14T07:06:44;4.03;;;1.50;;
7233;SDS011;3658;47.992;10.158;2022-09-14T07:09:13;2.83;;;1.47;;
7233;SDS011;3658;47.992;10.158;2022-09-14T07:11:40;3.17;;;1.47;;
7233;SDS011;3658;47.992;10.158;2022-09-14T07:14:08;3.30;;;1.53;;
7233;SDS011;3658;47.992;10.158;2022-09-14T07:16:36;2.37;;;1.40;;
7233;SDS011;3658;47.992;10.158;2022-09-14T07:19:04;2.00;;;1.60;;
7233;SDS011;3658;47.992;10.158;2022-09-14T07:21:34;6.30;;;1.73;;
7233;SDS011;3658;47.992;10.158;2022-09-14T07:24:01;2.80;;;1.60;;
7233;SDS011;3658;47.992;10.158;2022-09-14T07:26:30;4.17;;;1.50;;
7233;SDS011;3658;47.992;10.158;2022-09-14T07:29:00;4.13;;;1.60;;
7233;SDS011;3658;47.992;10.158;2022-09-14T07:31:31;3.67;;;1.43;;
7233;SDS011;3658;47.992;10.158;2022-09-14T07:34:00;3.63;;;1.40;;
7233;SDS011;3658;47.992;10.158;2022-09-14T07:36:28;1.90;;;1.43;;
7233;SDS011;3658;47.992;10.158;2022-09-14T07:38:58;4.23;;;1.43;;
7233;SDS011;3658;47.992;10.158;2022-09-14T07:41:25;6.57;;;1.60;;
7233;SDS011;3658;47.992;10.158;2022-09-14T07:43:55;1.93;;;1.67;;
7233;SDS011;3658;47.992;10.158;2022-09-14T07:46:24;2.07;;;1.40;;
7233;SDS011;3658;47.992;10.158;2022-09-14T07:48:53;3.93;;;1.67;;
7233;SDS011;3658;47.992;10.158;2022-09-14T07:51:20;4.37;;;1.63;;
7233;SDS011;3658;47.992;10.158;2022-09-14T07:53:48;1.90;;;1.40;;
7233;SDS011;3658;47.992;10.158;2022-09-14T07:56:16;4.23;;;1.43;;
7233;SDS011;3658;47.992;10.158;2022-09-14T07:58:43;3.27;;;1.40;;
7233;SDS011;3658;47.992;10.158;2022-09-14T08:01:15;4.53;;;1.70;;
7233;SDS011;3658;47.992;10.158;2022-09-14T08:03:43;3.57;;;1.50;;
7233;SDS011;3658;47.992;10.158;2022-09-14T08:06:11;2.60;;;1.50;;
7233;SDS011;3658;47.992;10.158;2022-09-14T08:08:41;2.33;;;1.40;;
7233;SDS011;3658;47.992;10.158;2022-09-14T08:11:10;4.07;;;1.30;;
7233;SDS011;3658;47.992;10.158;2022-09-14T08:13:40;2.80;;;1.27;;
7233;SDS011;3658;47.992;10.158;2022-09-14T08:16:10;3.23;;;1.47;;
7233;SDS011;3658;47.992;10.158;2022-09-14T08:18:37;3.53;;;1.60;;
7233;SDS011;3658;47.992;10.158;2022-09-14T08:21:05;2.73;;;1.50;;
7233;SDS011;3658;47.992;10.158;2022-09-14T08:23:34;3.67;;;1.57;;
7233;SDS011;3658;47.992;10.158;2022-09-14T08:26:02;1.77;;;1.33;;
7233;SDS011;3658;47.992;10.158;2022-09-14T08:28:29;2.67;;;1.37;;
7233;SDS011;3658;47.992;10.158;2022-09-14T08:31:01;2.63;;;1.53;;
7233;SDS011;3658;47.992;10.158;2022-09-14T08:33:30;2.60;;;1.53;;
7233;SDS011;3658;47.992;10.158;2022-09-14T08:35:58;3.83;;;1.37;;
7233;SDS011;3658;47.992;10.158;2022-09-14T08:38:25;6.23;;;1.73;;
7233;SDS011;3658;47.992;10.158;2022-09-14T08:40:52;4.03;;;1.57;;
7233;SDS011;3658;47.992;10.158;2022-09-14T08:43:20;1.40;;;1.20;;
7233;SDS011;3658;47.992;10.158;2022-09-14T08:45:51;3.93;;;1.50;;
7233;SDS011;3658;47.992;10.158;2022-09-14T08:48:28;2.13;;;1.63;;
7233;SDS011;3658;47.992;10.158;2022-09-14T08:51:00;2.37;;;1.37;;
7233;SDS011;3658;47.992;10.158;2022-09-14T08:53:28;2.90;;;1.43;;
7233;SDS011;3658;47.992;10.158;2022-09-14T08:55:57;3.37;;;1.33;;
7233;SDS011;3658;47.992;10.158;2022-09-14T08:58:31;6.27;;;1.80;;
7233;SDS011;3658;47.992;10.158;2022-09-14T09:01:11;1.43;;;1.33;;
7233;SDS011;3658;47.992;10.158;2022-09-14T09:03:52;1.77;;;1.33;;
7233;SDS011;3658;47.992;10.158;2022-09-14T09:06:28;3.17;;;1.30;;
7233;SDS011;3658;47.992;10.158;2022-09-14T09:09:07;7.13;;;1.50;;
7233;SDS011;3658;47.992;10.158;2022-09-14T09:11:39;2.97;;;1.20;;
7233;SDS011;3658;47.992;10.158;2022-09-14T09:14:12;3.53;;;1.40;;
7233;SDS011;3658;47.992;10.158;2022-09-14T09:16:44;4.53;;;1.57;;
7233;SDS011;3658;47.992;10.158;2022-09-14T09:19:18;5.27;;;1.57;;
7233;SDS011;3658;47.992;10.158;2022-09-14T09:21:49;5.93;;;2.13;;
7233;SDS011;3658;47.992;10.158;2022-09-14T09:24:21;4.63;;;1.57;;
7233;SDS011;3658;47.992;10.158;2022-09-14T09:26:52;6.13;;;1.50;;
7233;SDS011;3658;47.992;10.158;2022-09-14T09:29:19;3.77;;;1.53;;
7233;SDS011;3658;47.992;10.158;2022-09-14T09:31:47;4.10;;;1.43;;
7233;SDS011;3658;47.992;10.158;2022-09-14T09:34:20;4.23;;;1.20;;
7233;SDS011;3658;47.992;10.158;2022-09-14T09:36:51;7.67;;;2.40;;
7233;SDS011;3658;47.992;10.158;2022-09-14T09:39:20;9.07;;;1.80;;
7233;SDS011;3658;47.992;10.158;2022-09-14T09:41:48;4.03;;;1.37;;
7233;SDS011;3658;47.992;10.158;2022-09-14T09:44:20;3.30;;;1.53;;
7233;SDS011;3658;47.992;10.158;2022-09-14T09:46:49;1.60;;;1.37;;
7233;SDS011;3658;47.992;10.158;2022-09-14T09:49:20;4.80;;;1.40;;
7233;SDS011;3658;47.992;10.158;2022-09-14T09:51:50;5.23;;;1.60;;
7233;SDS011;3658;47.992;10.158;2022-09-14T09:54:22;5.53;;;1.70;;
7233;SDS011;3658;47.992;10.158;2022-09-14T09:56:53;3.63;;;1.50;;
7233;SDS011;3658;47.992;10.158;2022-09-14T09:59:26;7.30;;;1.87;;
7233;SDS011;3658;47.992;10.158;2022-09-14T10:01:55;4.27;;;1.70;;
7233;SDS011;3658;47.992;10.158;2022-09-14T10:04:46;2.43;;;1.10;;
7233;SDS011;3658;47.992;10.158;2022-09-14T10:07:21;4.67;;;1.40;;
7233;SDS011;3658;47.992;10.158;2022-09-14T10:09:55;4.40;;;1.80;;
7233;SDS011;3658;47.992;10.158;2022-09-14T10:12:24;7.80;;;2.83;;
7233;SDS011;3658;47.992;10.158;2022-09-14T10:15:01;3.00;;;2.00;;
7233;SDS011;3658;47.992;10.158;2022-09-14T10:17:31;4.53;;;1.87;;
7233;SDS011;3658;47.992;10.158;2022-09-14T10:20:01;2.47;;;1.70;;
7233;SDS011;3658;47.992;10.158;2022-09-14T10:22:29;4.47;;;1.80;;
7233;SDS011;3658;47.992;10.158;2022-09-14T10:24:57;4.80;;;2.00;;
7233;SDS011;3658;47.992;10.158;2022-09-14T10:27:39;3.43;;;2.10;;
7233;SDS011;3658;47.992;10.158;2022-09-14T10:30:13;4.53;;;2.17;;
7233;SDS011;3658;47.992;10.158;2022-09-14T10:32:42;3.50;;;1.97;;
7233;SDS011;3658;47.992;10.158;2022-09-14T10:35:14;2.90;;;1.80;;
7233;SDS011;3658;47.992;10.158;2022-09-14T10:37:48;4.10;;;2.43;;
7233;SDS011;3658;47.992;10.158;2022-09-14T10:40:24;3.20;;;2.20;;
7233;SDS011;3658;47.992;10.158;2022-09-14T10:43:02;5.33;;;2.20;;
7233;SDS011;3658;47.992;10.158;2022-09-14T10:45:37;4.23;;;2.33;;
7233;SDS011;3658;47.992;10.158;2022-09-14T10:48:16;5.37;;;2.40;;
7233;SDS011;3658;47.992;10.158;2022-09-14T10:50:55;5.73;;;2.40;;
7233;SDS011;3658;47.992;10.158;2022-09-14T10:53:40;5.93;;;2.40;;
7233;SDS011;3658;47.992;10.158;2022-09-14T10:56:14;3.20;;;2.37;;
7233;SDS011;3658;47.992;10.158;2022-09-14T10:58:55;2.83;;;2.30;;
7233;SDS011;3658;47.992;10.158;2022-09-14T11:01:43;4.30;;;2.37;;
7233;SDS011;3658;47.992;10.158;2022-09-14T11:07:23;2.97;;;2.30;;
7233;SDS011;3658;47.992;10.158;2022-09-14T11:10:00;3.73;;;2.40;;
7233;SDS011;3658;47.992;10.158;2022-09-14T11:12:41;3.83;;;2.40;;
7233;SDS011;3658;47.992;10.158;2022-09-14T11:15:14;5.67;;;3.10;;
7233;SDS011;3658;47.992;10.158;2022-09-14T11:17:52;3.20;;;2.33;;
7233;SDS011;3658;47.992;10.158;2022-09-14T11:20:36;4.10;;;2.37;;
7233;SDS011;3658;47.992;10.158;2022-09-14T11:23:14;5.80;;;2.67;;
7233;SDS011;3658;47.992;10.158;2022-09-14T11:25:52;6.33;;;2.37;;
7233;SDS011;3658;47.992;10.158;2022-09-14T11:28:23;4.10;;;2.57;;
7233;SDS011;3658;47.992;10.158;2022-09-14T11:30:54;6.17;;;2.93;;
7233;SDS011;3658;47.992;10.158;2022-09-14T11:33:27;4.73;;;2.30;;
7233;SDS011;3658;47.992;10.158;2022-09-14T11:36:02;3.70;;;2.50;;
7233;SDS011;3658;47.992;10.158;2022-09-14T11:38:42;3.27;;;2.20;;
7233;SDS011;3658;47.992;10.158;2022-09-14T11:41:16;6.63;;;2.57;;
7233;SDS011;3658;47.992;10.158;2022-09-14T11:43:49;3.13;;;2.30;;
7233;SDS011;3658;47.992;10.158;2022-09-14T11:46:21;4.30;;;2.63;;
7233;SDS011;3658;47.992;10.158;2022-09-14T11:48:55;3.17;;;2.10;;
7233;SDS011;3658;47.992;10.158;2022-09-14T11:51:27;4.13;;;2.77;;
7233;SDS011;3658;47.992;10.158;2022-09-14T11:53:59;4.00;;;2.20;;
7233;SDS011;3658;47.992;10.158;2022-09-14T11:56:27;4.77;;;2.40;;
7233;SDS011;3658;47.992;10.158;2022-09-14T11:58:57;6.43;;;2.50;;
7233;SDS011;3658;47.992;10.158;2022-09-14T12:01:26;3.33;;;2.40;;
7233;SDS011;3658;47.992;10.158;2022-09-14T12:04:06;3.50;;;2.20;;
7233;SDS011;3658;47.992;10.158;2022-09-14T12:06:51;4.57;;;2.40;;
7233;SDS011;3658;47.992;10.158;2022-09-14T12:15:15;8.83;;;2.53;;
7233;SDS011;3658;47.992;10.158;2022-09-14T12:17:46;2.90;;;2.13;;
7233;SDS011;3658;47.992;10.158;2022-09-14T12:20:28;5.73;;;2.30;;
7233;SDS011;3658;47.992;10.158;2022-09-14T12:26:04;3.50;;;2.10;;
7233;SDS011;3658;47.992;10.158;2022-09-14T12:28:40;3.87;;;2.30;;
7233;SDS011;3658;47.992;10.158;2022-09-14T12:34:03;3.57;;;2.53;;
7233;SDS011;3658;47.992;10.158;2022-09-14T12:36:59;3.70;;;2.27;;
7233;SDS011;3658;47.992;10.158;2022-09-14T12:43:04;4.33;;;2.10;;
7233;SDS011;3658;47.992;10.158;2022-09-14T12:49:25;4.30;;;2.20;;
7233;SDS011;3658;47.992;10.158;2022-09-14T12:51:59;4.40;;;2.83;;
7233;SDS011;3658;47.992;10.158;2022-09-14T12:54:45;4.07;;;2.37;;
7233;SDS011;3658;47.992;10.158;2022-09-14T12:57:26;3.93;;;2.40;;
7233;SDS011;3658;47.992;10.158;2022-09-14T13:00:04;2.63;;;2.03;;
7233;SDS011;3658;47.992;10.158;2022-09-14T13:02:53;3.77;;;2.07;;
7233;SDS011;3658;47.992;10.158;2022-09-14T13:05:41;3.47;;;2.17;;
7233;SDS011;3658;47.992;10.158;2022-09-14T13:08:09;5.30;;;2.33;;
7233;SDS011;3658;47.992;10.158;2022-09-14T13:10:42;5.63;;;2.73;;
7233;SDS011;3658;47.992;10.158;2022-09-14T13:13:13;6.17;;;2.83;;
7233;SDS011;3658;47.992;10.158;2022-09-14T13:15:47;4.93;;;2.40;;
7233;SDS011;3658;47.992;10.158;2022-09-14T13:18:25;4.07;;;2.73;;
7233;SDS011;3658;47.992;10.158;2022-09-14T13:20:58;6.47;;;2.50;;
7233;SDS011;3658;47.992;10.158;2022-09-14T13:23:27;7.63;;;2.73;;
7233;SDS011;3658;47.992;10.158;2022-09-14T13:25:57;2.90;;;2.30;;
7233;SDS011;3658;47.992;10.158;2022-09-14T13:28:25;8.53;;;2.53;;
7233;SDS011;3658;47.992;10.158;2022-09-14T13:30:57;6.53;;;2.40;;
7233;SDS011;3658;47.992;10.158;2022-09-14T13:33:25;7.17;;;2.27;;
7233;SDS011;3658;47.992;10.158;2022-09-14T13:35:54;4.37;;;2.47;;
7233;SDS011;3658;47.992;10.158;2022-09-14T13:38:23;8.63;;;2.70;;
7233;SDS011;3658;47.992;10.158;2022-09-14T13:40:52;7.97;;;2.07;;
7233;SDS011;3658;47.992;10.158;2022-09-14T13:43:21;6.83;;;2.53;;
7233;SDS011;3658;47.992;10.158;2022-09-14T13:45:49;6.00;;;2.23;;
7233;SDS011;3658;47.992;10.158;2022-09-14T13:48:19;3.27;;;2.03;;
7233;SDS011;3658;47.992;10.158;2022-09-14T13:50:48;4.33;;;2.20;;
7233;SDS011;3658;47.992;10.158;2022-09-14T13:53:35;4.90;;;2.47;;
7233;SDS011;3658;47.992;10.158;2022-09-14T13:56:20;7.50;;;2.57;;
7233;SDS011;3658;47.992;10.158;2022-09-14T13:59:12;3.97;;;2.37;;
7233;SDS011;3658;47.992;10.158;2022-09-14T14:01:55;7.97;;;3.10;;
7233;SDS011;3658;47.992;10.158;2022-09-14T14:04:29;5.53;;;2.23;;
7233;SDS011;3658;47.992;10.158;2022-09-14T14:07:03;5.03;;;2.70;;
7233;SDS011;3658;47.992;10.158;2022-09-14T14:09:39;4.97;;;2.40;;
7233;SDS011;3658;47.992;10.158;2022-09-14T14:12:08;4.47;;;2.37;;
7233;SDS011;3658;47.992;10.158;2022-09-14T14:14:36;5.43;;;2.27;;
7233;SDS011;3658;47.992;10.158;2022-09-14T14:17:20;5.30;;;2.60;;
7233;SDS011;3658;47.992;10.158;2022-09-14T14:22:58;5.97;;;2.93;;
7233;SDS011;3658;47.992;10.158;2022-09-14T14:25:29;4.63;;;2.17;;
7233;SDS011;3658;47.992;10.158;2022-09-14T14:27:59;4.47;;;2.23;;
7233;SDS011;3658;47.992;10.158;2022-09-14T14:30:27;4.37;;;2.50;;
7233;SDS011;3658;47.992;10.158;2022-09-14T14:32:56;3.60;;;2.23;;
7233;SDS011;3658;47.992;10.158;2022-09-14T14:35:26;6.50;;;2.80;;
7233;SDS011;3658;47.992;10.158;2022-09-14T14:37:54;10.43;;;2.10;;
7233;SDS011;3658;47.992;10.158;2022-09-14T14:40:22;5.63;;;2.10;;
7233;SDS011;3658;47.992;10.158;2022-09-14T14:42:51;5.60;;;2.23;;
7233;SDS011;3658;47.992;10.158;2022-09-14T14:45:19;7.17;;;2.10;;
7233;SDS011;3658;47.992;10.158;2022-09-14T14:47:50;3.33;;;1.97;;
7233;SDS011;3658;47.992;10.158;2022-09-14T14:50:19;3.43;;;2.00;;
7233;SDS011;3658;47.992;10.158;2022-09-14T14:52:49;3.10;;;1.80;;
7233;SDS011;3658;47.992;10.158;2022-09-14T14:55:16;4.30;;;2.00;;
7233;SDS011;3658;47.992;10.158;2022-09-14T14:57:44;3.83;;;2.30;;
7233;SDS011;3658;47.992;10.158;2022-09-14T15:00:12;7.03;;;2.50;;
7233;SDS011;3658;47.992;10.158;2022-09-14T15:02:41;4.10;;;1.93;;
7233;SDS011;3658;47.992;10.158;2022-09-14T15:05:09;2.07;;;1.50;;
7233;SDS011;3658;47.992;10.158;2022-09-14T15:07:37;3.93;;;1.97;;
7233;SDS011;3658;47.992;10.158;2022-09-14T15:10:06;3.23;;;2.00;;
7233;SDS011;3658;47.992;10.158;2022-09-14T15:12:34;3.83;;;1.90;;
7233;SDS011;3658;47.992;10.158;2022-09-14T15:15:02;2.90;;;1.77;;
7233;SDS011;3658;47.992;10.158;2022-09-14T15:17:29;4.67;;;1.90;;
7233;SDS011;3658;47.992;10.158;2022-09-14T15:19:56;2.87;;;1.70;;
7233;SDS011;3658;47.992;10.158;2022-09-14T15:22:23;1.93;;;1.60;;
7233;SDS011;3658;47.992;10.158;2022-09-14T15:24:50;2.43;;;1.87;;
7233;SDS011;3658;47.992;10.158;2022-09-14T15:27:18;2.57;;;1.60;;
7233;SDS011;3658;47.992;10.158;2022-09-14T15:29:45;2.30;;;1.97;;
7233;SDS011;3658;47.992;10.158;2022-09-14T15:32:12;2.43;;;1.80;;
7233;SDS011;3658;47.992;10.158;2022-09-14T15:34:39;2.10;;;1.60;;
7233;SDS011;3658;47.992;10.158;2022-09-14T15:37:07;3.50;;;1.70;;
7233;SDS011;3658;47.992;10.158;2022-09-14T15:39:35;3.83;;;1.67;;
7233;SDS011;3658;47.992;10.158;2022-09-14T15:42:02;3.37;;;1.93;;
7233;SDS011;3658;47.992;10.158;2022-09-14T15:44:31;2.27;;;1.90;;
7233;SDS011;3658;47.992;10.158;2022-09-14T15:46:58;2.07;;;1.70;;
7233;SDS011;3658;47.992;10.158;2022-09-14T15:49:25;2.97;;;1.77;;
7233;SDS011;3658;47.992;10.158;2022-09-14T15:51:53;2.30;;;1.67;;